Almo, KY (42020)

10:28 AM CST on December 26, 2014 (GMT -0600)
Kyle-Oakley | Change Station
CLOSE
Current Station
Airport
Location: Murray,
Elevation: 577 ft
Nearby Weather Stations

Elev 577 ft 36.66 °N, 88.37 °W | Updated 13 minutes ago

Clear
Clear
46 °F
Feels Like 42 °F
N
10
Wind Variable Wind from South

Today
High -- | Low -- °F
--% Chance of Precip.
Yesterday
High -- | Low -- °F
Precip. -- in
7:04 AM 4:44 PM
Waxing Crescent, 27% visible
Pressure 30.24 in
Visibility 10.0 miles
Clouds Clear
Windchill 42 °F
Dew Point 37 °F
Humidity 71%
Rainfall 0.00 in
Snow Depth Not available.
UV 2 out of 12
Pollen 4.30 out of 12
Air Quality Not available.
Flu Activity Not available.
METAR KCEY 261615Z AUTO 17009KT 10SM CLR 08/03 A3024 RMK AO1

More Conditions Fewer Conditions

Pressure 30.24 in
Visibility 10.0 miles
Clouds Clear
Windchill 42 °F
Dew Point 37 °F
Humidity 71%
Rainfall 0.00 in
Snow Depth Not available.
UV 2 out of 12
Pollen 4.30 out of 12
Air Quality Not available.
Flu Activity Not available.
METAR KCEY 261615Z AUTO 17009KT 10SM CLR 08/03 A3024 RMK AO1

More Conditions Fewer Conditions

10-Day Weather Forecast

Almanac

Astronomy

Dec. 26, 2014 Rise Set
Actual Time
Civil Twilight
Nautical Twilight
Astronomical Twilight
Moon
Length of Visible Light
Length of Day
Tomorrow will be .
, % of the Moon is Illuminated

Today's Extremes

State Highs State Lows

Community

WunderPhotos

Upload Photos

1,780,628 photos uploaded!

WunderBlogs® & News

Nearby

Air Quality

  Air Quality AQ Index Pollutant
Not available.

Snow Depth

Station Depth Elevation

Earthquake Activity

City Distance Mag. Time & Date
Minimum magnitude displayed is 2.5.

Coastal Water Temperatures

Place Temperature

Nearby Weather Stations